Time;durP1;ratioP1;P1;durP2;ratioP2;P2;SDS_P1;SDS_P2;PMS_P1;PMS_P2;Temp;Humidity;BMP_temperature;BMP_pressure;BME280_temperature;BME280_humidity;BME280_pressure;Samples;Min_cycle;Max_cycle;Signal;HPM_P1;HPM_P2
2023/03/26 00:01:55;;;;;;;10.38;2.15;;;17.20;91.00;;;;;;5072640;28;20048;-65
2023/03/26 00:04:24;;;;;;;7.38;1.83;;;;;;;;;;5073334;28;20040;-64
2023/03/26 00:06:50;;;;;;;7.00;1.75;;;;;;;;;;5073856;28;20045;-65
2023/03/26 00:09:17;;;;;;;6.85;1.92;;;;;;;;;;5072873;28;20460;-63
2023/03/26 00:11:44;;;;;;;6.38;1.95;;;17.30;90.90;;;;;;5073739;28;20040;-63
2023/03/26 00:14:12;;;;;;;5.47;1.10;;;17.10;89.00;;;;;;5073726;28;20044;-62
2023/03/26 00:16:39;;;;;;;5.43;1.40;;;;;;;;;;5072460;28;20045;-64
2023/03/26 00:19:04;;;;;;;5.97;1.70;;;16.90;90.90;;;;;;5073859;28;20123;-62
2023/03/26 00:21:30;;;;;;;6.90;1.75;;;17.30;90.50;;;;;;5072972;28;20430;-65
2023/03/26 00:24:03;;;;;;;6.88;1.73;;;17.30;91.00;;;;;;5071407;28;20398;-63
2023/03/26 00:26:30;;;;;;;7.38;2.30;;;16.90;90.90;;;;;;5073479;28;20040;-65
2023/03/26 00:28:56;;;;;;;8.13;1.90;;;17.10;91.00;;;;;;5073678;28;20044;-64
2023/03/26 00:31:22;;;;;;;5.57;1.90;;;17.00;89.80;;;;;;5073658;28;20124;-64
2023/03/26 00:33:50;;;;;;;4.50;1.63;;;;;;;;;;5073368;28;20059;-62
2023/03/26 00:36:16;;;;;;;8.13;2.15;;;;;;;;;;5072324;28;20044;-62
2023/03/26 00:38:43;;;;;;;6.13;1.70;;;17.20;91.00;;;;;;5071163;28;20044;-65
2023/03/26 00:41:16;;;;;;;5.97;1.52;;;17.00;90.30;;;;;;5073017;28;20053;-63
2023/03/26 00:43:45;;;;;;;6.68;1.75;;;17.10;91.00;;;;;;5073418;28;20053;-65
2023/03/26 00:46:11;;;;;;;9.07;2.03;;;17.40;88.80;;;;;;5072012;28;20437;-62
2023/03/26 00:48:38;;;;;;;5.88;1.65;;;17.10;91.00;;;;;;5072986;28;20048;-63
2023/03/26 00:51:05;;;;;;;5.78;2.00;;;17.30;91.10;;;;;;5073005;28;20049;-63
2023/03/26 00:53:31;;;;;;;6.95;2.45;;;17.20;91.10;;;;;;5072028;28;20394;-61
2023/03/26 00:55:59;;;;;;;8.65;2.20;;;;;;;;;;5064726;28;20040;-62
2023/03/26 00:58:28;;;;;;;4.78;1.38;;;17.10;90.90;;;;;;5073129;28;20076;-62
2023/03/26 01:00:58;;;;;;;5.00;1.55;;;17.10;88.10;;;;;;5072710;28;20044;-62
2023/03/26 01:03:27;;;;;;;6.65;1.85;;;16.90;90.90;;;;;;5073056;28;20056;-62
2023/03/26 01:06:03;;;;;;;6.45;1.98;;;17.20;89.20;;;;;;5071886;28;20048;-64
2023/03/26 01:08:40;;;;;;;4.78;1.42;;;17.20;87.70;;;;;;5072977;28;20379;-60
2023/03/26 01:11:21;;;;;;;7.38;1.90;;;17.10;90.90;;;;;;5072974;28;20422;-62
2023/03/26 01:13:51;;;;;;;7.65;1.73;;;17.00;91.00;;;;;;5071712;28;20045;-65
2023/03/26 01:16:25;;;;;;;6.85;1.85;;;17.20;90.40;;;;;;5055568;28;20080;-63
2023/03/26 01:18:52;;;;;;;5.47;1.92;;;;;;;;;;5054945;28;20393;-60
2023/03/26 01:21:21;;;;;;;8.25;2.03;;;17.10;91.10;;;;;;5071216;28;20048;-65
2023/03/26 01:23:56;;;;;;;6.57;2.03;;;17.10;89.20;;;;;;5055163;28;20076;-65
2023/03/26 01:26:46;;;;;;;4.18;1.40;;;17.10;87.70;;;;;;5072822;28;20040;-65
2023/03/26 01:29:20;;;;;;;6.40;1.70;;;17.10;91.00;;;;;;5071634;28;20102;-61
2023/03/26 01:32:15;;;;;;;6.22;1.73;;;17.20;87.80;;;;;;5055381;28;20044;-62
2023/03/26 01:34:57;;;;;;;7.20;1.90;;;17.10;88.20;;;;;;5063080;28;20048;-65
2023/03/26 01:37:52;;;;;;;6.27;1.83;;;17.00;89.60;;;;;;5071149;28;20051;-61
2023/03/26 01:40:41;;;;;;;5.30;1.60;;;17.10;91.10;;;;;;5071235;28;20052;-64
2023/03/26 01:43:17;;;;;;;7.30;1.70;;;17.30;91.10;;;;;;5071523;28;20040;-65
2023/03/26 01:45:43;;;;;;;4.53;1.25;;;16.80;91.00;;;;;;5054514;28;20056;-65
2023/03/26 01:48:09;;;;;;;5.60;1.80;;;17.00;90.00;;;;;;5071231;28;20040;-61
2023/03/26 01:50:35;;;;;;;6.25;1.50;;;17.30;90.20;;;;;;5054332;28;20056;-62
2023/03/26 01:53:01;;;;;;;5.68;1.75;;;17.30;89.90;;;;;;5072280;28;20049;-63
2023/03/26 01:55:42;;;;;;;6.88;1.73;;;17.10;91.10;;;;;;5072403;28;20120;-62
2023/03/26 01:58:11;;;;;;;7.35;1.70;;;;;;;;;;5070965;28;20541;-65
2023/03/26 02:00:44;;;;;;;6.78;1.95;;;17.00;90.40;;;;;;5071136;28;20040;-65
2023/03/26 02:03:37;;;;;;;5.93;1.60;;;16.80;87.80;;;;;;5070119;28;20046;-64
2023/03/26 02:06:14;;;;;;;9.45;1.77;;;17.00;91.00;;;;;;5070891;28;20478;-60
2023/03/26 02:09:01;;;;;;;8.55;1.80;;;16.90;89.40;;;;;;5072068;28;20410;-64
2023/03/26 02:11:27;;;;;;;9.43;1.98;;;17.10;91.00;;;;;;5071943;28;20044;-65
2023/03/26 02:13:53;;;;;;;5.13;1.48;;;17.10;91.00;;;;;;5054544;28;20040;-65
2023/03/26 02:16:19;;;;;;;7.20;1.75;;;17.00;91.00;;;;;;5054244;28;20241;-63
2023/03/26 02:18:46;;;;;;;7.30;2.20;;;17.30;88.40;;;;;;5070653;28;20052;-64
2023/03/26 02:21:20;;;;;;;5.38;1.83;;;16.90;87.50;;;;;;5054701;28;20053;-64
2023/03/26 02:23:47;;;;;;;8.13;1.83;;;17.00;91.00;;;;;;5051853;28;20101;-64
2023/03/26 02:26:14;;;;;;;7.70;2.08;;;17.00;89.10;;;;;;5051878;28;20057;-61
2023/03/26 02:28:40;;;;;;;6.30;1.50;;;16.90;90.90;;;;;;5050570;28;20045;-64
2023/03/26 02:31:09;;;;;;;8.32;2.47;;;17.20;91.00;;;;;;5051729;28;20053;-64
2023/03/26 02:33:35;;;;;;;5.90;1.80;;;16.90;90.90;;;;;;5051759;28;20048;-61
2023/03/26 02:36:01;;;;;;;6.72;1.85;;;17.00;90.40;;;;;;5052103;28;20041;-63
2023/03/26 02:38:34;;;;;;;4.47;1.50;;;16.90;89.50;;;;;;5052621;28;20407;-64
2023/03/26 02:41:00;;;;;;;7.25;1.63;;;17.20;88.30;;;;;;5051544;28;20148;-65
2023/03/26 02:43:26;;;;;;;8.43;2.10;;;17.20;90.40;;;;;;5050785;28;20118;-62
2023/03/26 02:45:52;;;;;;;7.65;2.13;;;;;;;;;;5051956;28;20548;-62
2023/03/26 02:48:19;;;;;;;6.18;1.73;;;;;;;;;;5054328;28;20136;-64
2023/03/26 02:50:45;;;;;;;10.27;2.42;;;;;;;;;;5055637;28;20084;-60
2023/03/26 02:53:12;;;;;;;6.30;1.98;;;;;;;;;;5054310;28;20037;-62
2023/03/26 02:55:38;;;;;;;7.22;2.03;;;17.30;90.90;;;;;;5067546;28;20397;-64
2023/03/26 02:58:05;;;;;;;7.90;1.65;;;;;;;;;;5075413;28;20127;-63
2023/03/26 03:00:32;;;;;;;5.65;2.10;;;17.10;90.90;;;;;;5075303;28;20049;-65
2023/03/26 03:02:58;;;;;;;4.88;1.70;;;17.00;90.30;;;;;;5075361;28;20041;-60
2023/03/26 03:05:30;;;;;;;8.15;2.13;;;;;;;;;;5075349;28;20123;-65
2023/03/26 03:07:56;;;;;;;7.28;1.98;;;17.10;90.80;;;;;;5074984;28;20474;-63
2023/03/26 03:10:26;;;;;;;7.32;2.05;;;16.90;90.70;;;;;;5074437;28;20048;-65
2023/03/26 03:12:52;;;;;;;12.02;2.25;;;16.90;88.80;;;;;;5074910;28;20128;-62
2023/03/26 03:15:18;;;;;;;6.20;1.65;;;16.80;90.70;;;;;;5073936;28;20076;-65
2023/03/26 03:17:45;;;;;;;7.43;1.88;;;;;;;;;;5074661;28;20055;-62
2023/03/26 03:20:11;;;;;;;8.18;2.33;;;17.00;88.90;;;;;;5074658;28;20045;-62
2023/03/26 03:22:36;;;;;;;6.93;1.88;;;17.00;88.80;;;;;;5074743;28;20097;-62
2023/03/26 03:25:03;;;;;;;11.57;2.08;;;17.00;90.00;;;;;;5073717;28;20393;-60
2023/03/26 03:27:29;;;;;;;8.38;1.50;;;17.00;90.70;;;;;;5072837;28;20052;-59
2023/03/26 03:29:57;;;;;;;8.02;1.80;;;;;;;;;;5074532;28;20163;-64
2023/03/26 03:32:24;;;;;;;9.02;2.20;;;17.00;90.60;;;;;;5074557;28;20088;-64
2023/03/26 03:34:49;;;;;;;8.05;1.90;;;16.60;87.90;;;;;;5074809;28;20111;-64
2023/03/26 03:37:19;;;;;;;8.75;2.47;;;16.70;87.90;;;;;;5074747;28;20517;-63
2023/03/26 03:39:45;;;;;;;8.48;2.33;;;16.80;88.50;;;;;;5072932;28;20044;-64
2023/03/26 03:42:11;;;;;;;8.18;2.08;;;;;;;;;;5072952;28;20083;-62
2023/03/26 03:44:37;;;;;;;9.23;2.03;;;16.60;90.20;;;;;;5073796;28;20383;-64
2023/03/26 03:47:03;;;;;;;9.20;2.35;;;;;;;;;;5074132;28;20070;-62
2023/03/26 03:49:29;;;;;;;8.68;1.80;;;;;;;;;;5074191;28;20076;-65
2023/03/26 03:51:55;;;;;;;8.07;1.60;;;16.80;90.30;;;;;;5073231;28;20119;-63
2023/03/26 03:54:22;;;;;;;8.60;1.75;;;;;;;;;;5074027;28;20123;-64
2023/03/26 03:56:48;;;;;;;4.90;1.48;;;;;;;;;;5074399;28;20045;-61
2023/03/26 03:59:14;;;;;;;7.32;1.67;;;;;;;;;;5074019;28;20504;-65
2023/03/26 04:01:45;;;;;;;7.90;1.90;;;16.70;90.30;;;;;;5073030;28;20045;-65
2023/03/26 04:04:11;;;;;;;7.45;2.00;;;16.90;89.00;;;;;;5074232;28;20367;-63
2023/03/26 04:06:37;;;;;;;9.20;2.33;;;16.90;88.70;;;;;;5073947;28;20048;-62
2023/03/26 04:09:03;;;;;;;6.55;1.92;;;;;;;;;;5056331;28;20037;-61
2023/03/26 04:11:29;;;;;;;6.72;2.20;;;16.90;90.40;;;;;;5073748;28;20044;-64
2023/03/26 04:13:55;;;;;;;8.57;2.10;;;17.00;89.60;;;;;;5073963;28;20049;-63
2023/03/26 04:16:21;;;;;;;6.60;1.98;;;16.80;90.30;;;;;;5073796;28;20390;-64
2023/03/26 04:18:46;;;;;;;7.88;1.92;;;16.80;90.40;;;;;;5072740;28;20513;-65
2023/03/26 04:21:14;;;;;;;10.23;2.90;;;;;;;;;;5073482;28;20044;-64
2023/03/26 04:23:41;;;;;;;6.63;1.85;;;16.70;90.30;;;;;;5073502;28;20055;-60
2023/03/26 04:26:09;;;;;;;6.90;2.22;;;;;;;;;;5072221;28;20052;-65
2023/03/26 04:28:52;;;;;;;8.68;2.40;;;16.80;86.70;;;;;;5072512;28;20048;-62
2023/03/26 04:31:22;;;;;;;7.35;1.75;;;16.80;87.70;;;;;;5055791;28;20502;-65
2023/03/26 04:33:49;;;;;;;6.40;1.85;;;16.80;90.00;;;;;;5073573;28;20055;-64
2023/03/26 04:36:15;;;;;;;7.90;2.00;;;16.70;89.40;;;;;;5072776;28;20106;-60
2023/03/26 04:38:47;;;;;;;8.48;2.28;;;16.50;86.40;;;;;;5072030;28;20071;-62
2023/03/26 04:41:13;;;;;;;8.98;2.40;;;16.90;86.80;;;;;;5071869;28;20104;-63
2023/03/26 04:43:46;;;;;;;7.38;1.98;;;16.80;90.30;;;;;;5072234;28;20402;-60
2023/03/26 04:46:17;;;;;;;7.80;1.80;;;16.70;90.20;;;;;;5073008;28;20052;-61
2023/03/26 04:48:43;;;;;;;7.88;1.75;;;16.70;90.30;;;;;;5071753;28;20124;-65
2023/03/26 04:51:17;;;;;;;6.72;2.10;;;16.60;87.00;;;;;;5072980;28;20060;-62
2023/03/26 04:53:46;;;;;;;6.60;2.03;;;16.80;90.10;;;;;;5064263;28;20116;-59
2023/03/26 04:56:20;;;;;;;6.47;2.03;;;16.90;88.60;;;;;;5055333;28;20068;-61
2023/03/26 04:58:49;;;;;;;6.97;2.20;;;;;;;;;;5071984;28;20455;-60
2023/03/26 05:01:15;;;;;;;6.47;2.15;;;16.80;88.40;;;;;;5072997;28;20084;-65
2023/03/26 05:03:44;;;;;;;8.40;1.90;;;16.80;90.30;;;;;;5071551;28;20115;-61
2023/03/26 05:06:10;;;;;;;9.98;2.40;;;16.40;89.70;;;;;;5071502;28;20052;-60
2023/03/26 05:08:35;;;;;;;7.20;2.00;;;16.50;90.10;;;;;;5055213;28;20131;-64
2023/03/26 05:11:01;;;;;;;7.03;2.03;;;16.70;88.20;;;;;;5069873;28;20413;-64
2023/03/26 05:13:27;;;;;;;9.23;2.55;;;16.70;90.30;;;;;;5072973;28;20041;-65
2023/03/26 05:15:54;;;;;;;6.07;1.83;;;16.70;90.30;;;;;;5071261;28;20512;-63
2023/03/26 05:18:20;;;;;;;7.18;1.75;;;;;;;;;;5072681;28;20048;-64
2023/03/26 05:20:46;;;;;;;7.97;1.83;;;;;;;;;;5072768;28;20048;-63
2023/03/26 05:23:12;;;;;;;6.63;2.00;;;16.80;88.40;;;;;;5071322;28;20056;-60
2023/03/26 05:25:38;;;;;;;6.57;1.60;;;;;;;;;;5072494;28;20044;-63
2023/03/26 05:28:04;;;;;;;5.60;1.33;;;16.40;88.70;;;;;;5056479;28;20056;-62
2023/03/26 05:30:30;;;;;;;11.40;3.55;;;16.30;90.10;;;;;;5052300;28;20045;-65
2023/03/26 05:32:56;;;;;;;7.85;1.83;;;;;;;;;;5052355;28;20060;-63
2023/03/26 05:35:22;;;;;;;7.10;2.00;;;16.80;90.20;;;;;;5052701;28;20040;-65
2023/03/26 05:37:48;;;;;;;8.05;2.25;;;16.70;90.20;;;;;;5052585;28;20471;-65
2023/03/26 05:40:15;;;;;;;8.13;1.95;;;16.80;90.20;;;;;;5052352;28;20053;-60
2023/03/26 05:42:41;;;;;;;8.70;2.05;;;16.40;87.70;;;;;;5051340;28;20128;-64
2023/03/26 05:45:08;;;;;;;8.50;1.83;;;16.50;86.30;;;;;;5053174;28;20566;-64
2023/03/26 05:47:34;;;;;;;7.45;2.13;;;16.60;88.30;;;;;;5050989;28;20059;-64
2023/03/26 05:50:00;;;;;;;8.43;1.85;;;16.30;90.00;;;;;;5052523;28;20124;-65
2023/03/26 05:52:26;;;;;;;7.25;1.70;;;16.70;90.10;;;;;;5054093;28;20037;-64
2023/03/26 05:54:52;;;;;;;6.10;2.17;;;;;;;;;;5072186;28;20067;-62
2023/03/26 05:57:18;;;;;;;8.98;1.85;;;16.60;90.00;;;;;;5072212;28;20048;-64
2023/03/26 05:59:44;;;;;;;7.82;2.33;;;16.60;90.00;;;;;;5072160;28;20121;-64
2023/03/26 06:02:10;;;;;;;7.05;1.95;;;;;;;;;;5071644;28;20041;-62
2023/03/26 06:04:39;;;;;;;7.63;2.05;;;16.50;90.00;;;;;;5072167;28;20060;-65
2023/03/26 06:07:08;;;;;;;10.35;2.17;;;16.60;86.50;;;;;;5070777;28;20059;-64
2023/03/26 06:09:38;;;;;;;7.05;1.83;;;16.60;90.00;;;;;;5072125;28;20049;-60
2023/03/26 06:12:08;;;;;;;6.35;1.52;;;16.60;90.00;;;;;;5071119;28;20044;-60
2023/03/26 06:14:34;;;;;;;8.70;2.13;;;16.70;90.00;;;;;;5070812;28;20055;-65
2023/03/26 06:17:00;;;;;;;9.63;1.90;;;;;;;;;;5070950;28;20049;-64
2023/03/26 06:19:26;;;;;;;6.40;1.88;;;;;;;;;;5071380;28;20398;-62
2023/03/26 06:21:52;;;;;;;9.45;2.42;;;16.30;89.70;;;;;;5071326;28;20128;-65
2023/03/26 06:24:18;;;;;;;6.30;1.73;;;;;;;;;;5074765;28;20517;-62
2023/03/26 06:26:45;;;;;;;7.60;2.17;;;16.50;89.60;;;;;;5075731;28;20045;-64
2023/03/26 06:29:12;;;;;;;8.27;2.05;;;16.90;87.10;;;;;;5075720;28;20053;-64
2023/03/26 06:31:38;;;;;;;8.88;2.00;;;;;;;;;;5075549;28;20059;-60
2023/03/26 06:34:04;;;;;;;8.23;2.20;;;;;;;;;;5075921;28;20044;-62
2023/03/26 06:36:30;;;;;;;10.10;2.47;;;16.60;86.70;;;;;;5075055;28;20040;-65
2023/03/26 06:38:56;;;;;;;6.63;2.13;;;;;;;;;;5074273;28;20044;-62
2023/03/26 06:41:22;;;;;;;8.25;2.15;;;16.70;89.60;;;;;;5075288;28;20406;-63
2023/03/26 06:43:48;;;;;;;8.00;2.17;;;16.70;89.60;;;;;;5075413;28;20048;-64
2023/03/26 06:46:14;;;;;;;11.05;2.25;;;16.70;86.20;;;;;;5075296;28;20068;-64
2023/03/26 06:48:41;;;;;;;10.98;1.85;;;16.80;89.60;;;;;;5075607;28;20052;-64
2023/03/26 06:51:07;;;;;;;7.38;2.20;;;16.70;88.40;;;;;;5075601;28;20078;-61
2023/03/26 06:53:33;;;;;;;8.73;2.33;;;;;;;;;;5067417;28;20053;-62
2023/03/26 06:56:01;;;;;;;7.85;2.58;;;;;;;;;;5074257;28;20109;-64
2023/03/26 06:58:27;;;;;;;8.90;1.85;;;16.70;89.20;;;;;;5075165;28;20044;-65
2023/03/26 07:00:54;;;;;;;9.95;2.45;;;16.90;87.30;;;;;;5073906;28;20070;-60
2023/03/26 07:03:20;;;;;;;9.00;1.67;;;;;;;;;;5075079;28;20140;-64
2023/03/26 07:05:46;;;;;;;6.85;2.05;;;16.70;89.10;;;;;;5075098;28;20041;-64
2023/03/26 07:08:13;;;;;;;7.72;1.80;;;;;;;;;;5075320;28;20094;-64
2023/03/26 07:10:39;;;;;;;8.85;2.50;;;16.70;89.00;;;;;;5055820;28;20499;-64
2023/03/26 07:13:05;;;;;;;8.73;2.78;;;;;;;;;;5037129;28;20135;-64
2023/03/26 07:15:31;;;;;;;7.28;2.17;;;16.60;88.80;;;;;;5053606;28;20049;-64
2023/03/26 07:17:57;;;;;;;7.22;2.17;;;16.80;88.10;;;;;;5054954;28;20051;-64
2023/03/26 07:20:23;;;;;;;10.82;1.98;;;;;;;;;;5054746;28;20048;-63
2023/03/26 07:22:49;;;;;;;11.65;2.55;;;16.70;88.60;;;;;;5054749;28;20044;-64
2023/03/26 07:25:16;;;;;;;7.30;1.85;;;16.50;88.60;;;;;;5054766;28;20048;-65
2023/03/26 07:28:13;;;;;;;8.07;2.13;;;16.80;86.00;;;;;;5074256;28;20048;-63
2023/03/26 07:31:17;;;;;;;8.95;2.47;;;16.50;85.80;;;;;;5073741;28;20052;-65
2023/03/26 07:34:07;;;;;;;8.57;2.05;;;16.40;83.70;;;;;;5074148;28;20101;-64
2023/03/26 07:36:39;;;;;;;8.63;1.98;;;16.60;88.40;;;;;;5073249;28;20052;-61
2023/03/26 07:39:11;;;;;;;7.65;2.00;;;16.50;88.10;;;;;;5074470;28;20049;-61
2023/03/26 07:41:37;;;;;;;7.55;2.03;;;;;;;;;;5074108;28;20598;-62
2023/03/26 07:44:26;;;;;;;9.27;2.13;;;16.70;83.80;;;;;;5073827;28;20040;-64
2023/03/26 07:46:52;;;;;;;8.00;1.90;;;16.80;85.40;;;;;;5072899;28;20052;-65
2023/03/26 07:49:19;;;;;;;8.65;2.08;;;16.60;86.30;;;;;;5073050;28;20045;-60
2023/03/26 07:51:46;;;;;;;11.35;2.47;;;16.80;87.30;;;;;;5073159;28;20040;-64
2023/03/26 07:54:12;;;;;;;8.25;2.20;;;;;;;;;;5074472;28;20052;-62
2023/03/26 07:57:03;;;;;;;8.52;2.22;;;16.80;85.00;;;;;;5074366;28;20091;-60
2023/03/26 07:59:39;;;;;;;10.00;2.05;;;;;;;;;;5066967;28;20056;-65
2023/03/26 08:02:32;;;;;;;11.77;2.22;;;16.70;83.30;;;;;;5074246;28;20075;-62
2023/03/26 08:05:18;;;;;;;8.82;2.25;;;16.80;83.30;;;;;;5073951;28;20047;-64
2023/03/26 08:08:15;;;;;;;7.93;1.95;;;16.80;83.30;;;;;;5072719;28;20075;-62
2023/03/26 08:10:50;;;;;;;7.68;1.95;;;16.80;83.10;;;;;;5074102;28;20040;-64
2023/03/26 08:13:42;;;;;;;8.88;1.95;;;17.00;84.30;;;;;;5073442;28;20162;-65
2023/03/26 08:16:25;;;;;;;11.10;2.05;;;17.10;84.70;;;;;;5070425;28;20113;-60
2023/03/26 08:19:01;;;;;;;11.65;2.00;;;17.10;87.10;;;;;;5052436;28;20049;-61
2023/03/26 08:21:28;;;;;;;8.50;2.20;;;;;;;;;;5052232;28;20059;-63
2023/03/26 08:24:21;;;;;;;6.38;2.00;;;17.10;84.30;;;;;;5052691;28;20056;-65
2023/03/26 08:27:21;;;;;;;9.50;2.13;;;16.70;83.90;;;;;;5044541;28;20060;-62
2023/03/26 08:29:58;;;;;;;7.38;2.08;;;17.10;86.80;;;;;;5054160;28;20384;-65
2023/03/26 08:32:24;;;;;;;6.85;1.85;;;17.10;84.80;;;;;;5052241;28;20057;-61
2023/03/26 08:34:51;;;;;;;9.25;2.42;;;17.10;83.90;;;;;;5053895;28;20110;-62
2023/03/26 08:37:17;;;;;;;6.75;2.33;;;17.30;86.40;;;;;;5085879;28;20049;-65
2023/03/26 08:39:43;;;;;;;8.82;2.05;;;17.20;85.80;;;;;;5053155;28;20048;-61
2023/03/26 08:42:09;;;;;;;8.40;1.88;;;17.20;83.00;;;;;;5052967;28;20053;-64
2023/03/26 08:44:39;;;;;;;9.45;2.75;;;17.80;85.60;;;;;;5052827;28;20052;-63
2023/03/26 08:47:35;;;;;;;8.25;1.90;;;17.70;82.70;;;;;;5053238;28;20060;-61
2023/03/26 08:50:23;;;;;;;9.38;2.08;;;17.80;81.30;;;;;;5053076;28;20441;-65
2023/03/26 08:53:13;;;;;;;8.73;2.30;;;17.60;81.00;;;;;;5065100;28;20044;-64
2023/03/26 08:56:01;;;;;;;10.63;2.20;;;17.90;85.40;;;;;;5073282;28;20657;-65
2023/03/26 08:58:28;;;;;;;6.43;1.63;;;;;;;;;;5057916;28;20402;-64
2023/03/26 09:00:54;;;;;;;6.57;2.00;;;;;;;;;;5073037;28;20048;-65
2023/03/26 09:03:38;;;;;;;6.53;1.90;;;17.90;80.40;;;;;;5073121;28;20421;-64
2023/03/26 09:06:10;;;;;;;5.70;1.90;;;17.90;84.10;;;;;;5055116;28;20119;-63
2023/03/26 09:09:09;;;;;;;7.88;2.20;;;17.90;80.80;;;;;;5071938;28;20102;-65
2023/03/26 09:12:12;;;;;;;9.82;2.50;;;17.80;80.70;;;;;;5072722;28;20049;-64
2023/03/26 09:15:01;;;;;;;7.82;2.47;;;17.80;81.90;;;;;;5071927;28;20041;-64
2023/03/26 09:17:36;;;;;;;10.57;2.17;;;17.60;84.60;;;;;;5072531;28;20040;-65
2023/03/26 09:20:12;;;;;;;8.15;2.15;;;18.00;84.00;;;;;;5072529;28;20037;-64
2023/03/26 09:23:02;;;;;;;11.15;2.45;;;17.90;84.70;;;;;;5071390;28;20486;-65
2023/03/26 09:25:38;;;;;;;7.28;2.35;;;18.00;84.60;;;;;;5071964;28;20045;-59
2023/03/26 09:28:31;;;;;;;8.15;2.17;;;18.10;84.60;;;;;;5071618;28;20066;-60
2023/03/26 09:31:06;;;;;;;11.60;2.17;;;17.90;79.60;;;;;;5072438;28;20091;-65
2023/03/26 09:34:12;;;;;;;8.90;2.05;;;18.00;81.20;;;;;;5072384;28;20494;-64
2023/03/26 09:36:51;;;;;;;10.90;2.15;;;18.10;84.10;;;;;;5033528;28;20095;-62
2023/03/26 09:39:29;;;;;;;7.03;2.25;;;18.10;83.90;;;;;;5050159;28;20080;-64
2023/03/26 09:42:08;;;;;;;6.75;2.10;;;18.10;84.20;;;;;;5049776;28;20056;-64
2023/03/26 09:44:55;;;;;;;10.55;2.20;;;18.00;79.40;;;;;;5050074;28;20049;-62
2023/03/26 09:47:33;;;;;;;8.40;2.42;;;18.10;80.30;;;;;;5049909;28;20052;-60
2023/03/26 09:50:14;;;;;;;6.60;2.05;;;18.10;79.50;;;;;;5050057;28;20049;-63
2023/03/26 09:52:52;;;;;;;6.90;1.90;;;18.10;79.40;;;;;;4997373;28;20129;-60
2023/03/26 09:55:33;;;;;;;9.05;2.78;;;18.10;80.70;;;;;;5030159;28;20046;-61
2023/03/26 09:58:23;;;;;;;6.55;2.10;;;18.20;79.40;;;;;;5048850;28;20384;-63
2023/03/26 10:01:11;;;;;;;10.73;2.17;;;18.10;83.50;;;;;;5034017;28;20107;-64
2023/03/26 10:03:52;;;;;;;9.63;2.25;;;18.10;82.50;;;;;;5034128;28;20483;-65
2023/03/26 10:06:41;;;;;;;8.35;2.30;;;18.10;78.90;;;;;;5033944;28;20095;-60
2023/03/26 10:09:16;;;;;;;6.60;2.30;;;18.30;78.80;;;;;;5033994;28;20045;-65
2023/03/26 10:12:17;;;;;;;8.40;2.15;;;18.00;83.10;;;;;;5050422;28;20041;-64
2023/03/26 10:15:04;;;;;;;9.57;1.85;;;;;;;;;;5033776;28;20067;-62
2023/03/26 10:17:47;;;;;;;8.05;1.95;;;18.00;83.20;;;;;;5052261;28;20159;-65
2023/03/26 10:20:35;;;;;;;9.13;1.98;;;18.20;78.70;;;;;;5053653;28;20415;-64
2023/03/26 10:23:09;;;;;;;6.78;1.98;;;;;;;;;;5068968;28;20140;-64
2023/03/26 10:25:35;;;;;;;7.97;1.90;;;;;;;;;;5070114;28;20052;-64
2023/03/26 10:28:17;;;;;;;9.63;2.45;;;18.10;83.00;;;;;;5053623;28;20491;-64
2023/03/26 10:31:04;;;;;;;8.23;2.92;;;18.00;78.90;;;;;;5070107;28;20060;-62
2023/03/26 10:34:05;;;;;;;9.68;2.33;;;18.00;83.10;;;;;;5069961;28;20462;-64
2023/03/26 10:36:32;;;;;;;12.10;2.78;;;18.10;80.10;;;;;;5036416;28;20569;-65
2023/03/26 10:39:39;;;;;;;9.00;2.03;;;17.90;83.00;;;;;;5069953;28;20088;-65
2023/03/26 10:42:37;;;;;;;7.38;2.20;;;18.30;80.30;;;;;;5030631;28;20064;-64
2023/03/26 10:45:08;;;;;;;6.65;1.92;;;18.10;78.60;;;;;;5053271;28;20151;-65
2023/03/26 10:47:53;;;;;;;6.93;2.10;;;18.00;78.70;;;;;;5069651;28;20056;-64
2023/03/26 10:50:55;;;;;;;7.90;2.00;;;17.80;78.60;;;;;;5054706;28;20049;-62
2023/03/26 10:53:41;;;;;;;7.18;2.15;;;18.00;83.10;;;;;;5055443;28;20378;-63
2023/03/26 10:56:17;;;;;;;9.68;1.90;;;17.90;82.90;;;;;;5072753;28;20049;-64
2023/03/26 10:58:43;;;;;;;8.13;2.10;;;;;;;;;;5071768;28;20040;-63
2023/03/26 11:01:23;;;;;;;10.13;2.05;;;17.70;78.10;;;;;;5055066;28;20095;-64
2023/03/26 11:03:53;;;;;;;5.38;1.80;;;18.10;82.90;;;;;;5053896;28;20067;-64
2023/03/26 11:06:29;;;;;;;8.43;2.38;;;18.00;80.40;;;;;;5055638;28;20103;-62
2023/03/26 11:09:11;;;;;;;8.10;2.05;;;18.00;79.60;;;;;;5053097;28;20124;-63
2023/03/26 11:11:58;;;;;;;6.35;1.95;;;17.90;79.50;;;;;;5072196;28;20131;-65
2023/03/26 11:14:49;;;;;;;9.77;2.65;;;18.10;78.20;;;;;;5057931;28;20036;-64
2023/03/26 11:17:15;;;;;;;8.20;1.83;;;18.20;82.70;;;;;;5075052;28;20040;-64
2023/03/26 11:20:05;;;;;;;8.75;1.90;;;17.90;77.90;;;;;;5075123;28;20084;-65
2023/03/26 11:23:06;;;;;;;7.78;1.90;;;18.00;79.80;;;;;;5073727;28;20405;-62
2023/03/26 11:26:05;;;;;;;8.10;1.90;;;18.20;78.40;;;;;;5052335;28;20064;-60
2023/03/26 11:28:49;;;;;;;4.97;1.75;;;18.20;80.30;;;;;;5067690;28;20041;-62
2023/03/26 11:31:36;;;;;;;6.85;1.73;;;18.20;78.20;;;;;;5052317;28;20049;-60
2023/03/26 11:34:27;;;;;;;7.63;2.20;;;18.00;79.60;;;;;;5052321;28;20056;-61
2023/03/26 11:36:55;;;;;;;8.15;1.60;;;18.00;80.30;;;;;;5030885;28;20094;-63
2023/03/26 11:39:24;;;;;;;9.18;2.00;;;17.80;82.40;;;;;;5052260;28;20048;-61
2023/03/26 11:41:51;;;;;;;7.82;1.90;;;18.20;81.90;;;;;;5068221;28;20045;-65
2023/03/26 11:44:20;;;;;;;8.63;1.65;;;18.30;79.60;;;;;;5052233;28;20061;-63
2023/03/26 11:46:47;;;;;;;5.97;1.65;;;18.00;80.20;;;;;;5068423;28;20084;-61
2023/03/26 11:49:15;;;;;;;9.13;2.35;;;18.20;82.10;;;;;;5051930;28;20118;-64
2023/03/26 11:51:42;;;;;;;8.98;2.67;;;18.50;82.40;;;;;;5048412;28;20116;-65
2023/03/26 11:54:10;;;;;;;7.90;1.90;;;18.50;79.10;;;;;;5015694;28;20477;-63
2023/03/26 11:56:56;;;;;;;8.60;2.13;;;18.20;78.80;;;;;;5015510;28;20042;-63
2023/03/26 11:59:30;;;;;;;9.93;2.20;;;18.30;81.90;;;;;;5033344;28;20451;-63
2023/03/26 12:01:58;;;;;;;8.50;1.88;;;18.00;81.80;;;;;;5049780;28;20499;-64
2023/03/26 12:04:34;;;;;;;12.32;2.17;;;18.30;82.10;;;;;;5054308;28;20049;-64
2023/03/26 12:07:17;;;;;;;8.82;2.10;;;18.10;81.40;;;;;;5086500;28;20059;-64
2023/03/26 12:09:50;;;;;;;7.25;1.98;;;18.20;82.10;;;;;;5052679;28;20044;-60
2023/03/26 12:12:16;;;;;;;7.90;2.05;;;;;;;;;;5052932;28;20051;-63
2023/03/26 12:14:42;;;;;;;6.85;1.90;;;;;;;;;;5053429;28;20044;-64
2023/03/26 12:17:11;;;;;;;5.47;1.70;;;18.20;79.50;;;;;;5053976;28;20727;-61
2023/03/26 12:19:39;;;;;;;6.18;2.00;;;18.30;81.80;;;;;;5051679;28;20044;-65
2023/03/26 12:22:10;;;;;;;9.70;2.42;;;18.30;81.70;;;;;;5053904;28;20049;-64
2023/03/26 12:24:36;;;;;;;8.27;2.45;;;18.30;81.90;;;;;;5052245;28;20041;-64
2023/03/26 12:27:20;;;;;;;7.90;2.30;;;18.20;77.60;;;;;;5053797;28;20071;-65
2023/03/26 12:29:58;;;;;;;7.45;1.98;;;17.90;77.00;;;;;;5053757;28;20055;-63
2023/03/26 12:32:24;;;;;;;8.40;2.28;;;18.10;79.30;;;;;;5054229;28;20041;-64
2023/03/26 12:34:50;;;;;;;7.30;1.88;;;17.90;81.70;;;;;;5052160;28;20463;-64
2023/03/26 12:37:37;;;;;;;6.13;1.80;;;18.10;77.60;;;;;;5053659;28;20088;-65
2023/03/26 12:40:28;;;;;;;6.72;1.70;;;17.90;80.20;;;;;;5068715;28;20118;-60
2023/03/26 12:42:56;;;;;;;8.07;1.92;;;18.10;81.60;;;;;;5052844;28;20067;-63
2023/03/26 12:45:42;;;;;;;6.82;1.75;;;18.20;79.00;;;;;;5053494;28;20052;-64
2023/03/26 12:48:12;;;;;;;5.25;1.70;;;18.00;78.30;;;;;;5052936;28;20126;-61
2023/03/26 12:50:56;;;;;;;6.95;1.70;;;17.90;81.60;;;;;;5064047;28;20037;-65
2023/03/26 12:53:31;;;;;;;8.95;2.30;;;18.00;81.90;;;;;;5071936;28;20557;-64
2023/03/26 12:56:06;;;;;;;8.23;2.05;;;18.10;82.10;;;;;;5072921;28;20040;-64
2023/03/26 12:58:53;;;;;;;7.00;2.03;;;18.00;81.50;;;;;;5055907;28;20048;-64
2023/03/26 13:01:38;;;;;;;7.97;1.92;;;18.30;82.00;;;;;;5056559;28;20097;-65
2023/03/26 13:04:16;;;;;;;8.13;2.15;;;18.00;80.40;;;;;;5073157;28;20048;-62
2023/03/26 13:06:44;;;;;;;6.90;1.70;;;18.10;81.60;;;;;;5071921;28;20087;-63
2023/03/26 13:09:40;;;;;;;5.57;1.67;;;18.00;81.60;;;;;;5072758;28;20044;-61
2023/03/26 13:12:30;;;;;;;8.95;1.80;;;17.90;78.70;;;;;;5057829;28;20087;-62
2023/03/26 13:15:45;;;;;;;10.63;1.92;;;18.00;77.40;;;;;;5069605;28;20452;-60
2023/03/26 13:18:36;;;;;;;8.00;2.05;;;18.00;81.60;;;;;;5068064;28;20071;-64
2023/03/26 13:21:20;;;;;;;7.10;1.90;;;18.10;77.80;;;;;;5071594;28;20127;-62
2023/03/26 13:24:04;;;;;;;6.07;1.80;;;17.90;78.60;;;;;;5072033;28;20044;-64
2023/03/26 13:26:50;;;;;;;8.88;1.73;;;17.90;81.60;;;;;;5072586;28;20079;-63
2023/03/26 13:29:25;;;;;;;7.80;1.90;;;17.90;81.60;;;;;;5072451;28;20075;-63
2023/03/26 13:32:09;;;;;;;9.15;2.03;;;18.00;81.70;;;;;;5070952;28;20044;-64
2023/03/26 13:35:05;;;;;;;6.60;2.10;;;17.80;78.70;;;;;;5072749;28;20450;-65
2023/03/26 13:37:46;;;;;;;5.18;1.60;;;17.60;77.20;;;;;;5056289;28;20048;-65
2023/03/26 13:40:18;;;;;;;8.50;1.77;;;17.80;76.90;;;;;;5071410;28;20176;-64